Time;durP1;ratioP1;P1;durP2;ratioP2;P2;SDS_P1;SDS_P2;PMS_P1;PMS_P2;Temp;Humidity;BMP_temperature;BMP_pressure;BME280_temperature;BME280_humidity;BME280_pressure;Samples;Min_cycle;Max_cycle;Signal;HPM_P1;HPM_P2
2023/09/13 00:03:50;;;;;;;5.53;1.15;;;29.00;70.30;;;;;;10489516;28;20076;-37
2023/09/13 00:08:52;;;;;;;2.95;1.00;;;29.00;70.30;;;;;;10499661;28;20054;-39
2023/09/13 00:13:56;;;;;;;2.80;1.05;;;29.00;70.30;;;;;;10477669;28;20224;-34
2023/09/13 00:18:59;;;;;;;2.13;1.20;;;29.00;71.00;;;;;;10482320;28;20107;-34
2023/09/13 00:24:01;;;;;;;3.92;0.90;;;29.00;70.50;;;;;;10487017;28;20044;-36
2023/09/13 00:29:04;;;;;;;2.30;1.10;;;29.00;70.60;;;;;;10482332;28;20131;-32
2023/09/13 00:34:07;;;;;;;1.73;0.70;;;28.90;70.60;;;;;;10501315;28;20075;-34
2023/09/13 00:39:09;;;;;;;2.65;0.73;;;28.90;70.80;;;;;;10487595;28;20067;-36
2023/09/13 00:44:12;;;;;;;3.70;1.02;;;29.00;70.80;;;;;;10485875;28;20132;-39
2023/09/13 00:49:15;;;;;;;2.25;0.90;;;28.90;70.80;;;;;;10488008;28;20129;-35
2023/09/13 00:54:17;;;;;;;2.05;0.80;;;28.90;70.80;;;;;;10487393;28;20138;-32
2023/09/13 00:59:21;;;;;;;2.92;0.73;;;28.90;71.00;;;;;;10482875;28;20140;-35
2023/09/13 01:04:23;;;;;;;3.05;0.70;;;28.90;71.10;;;;;;10489787;28;20056;-39
2023/09/13 01:09:25;;;;;;;3.03;0.90;;;28.90;71.10;;;;;;10494737;28;20537;-35
2023/09/13 01:14:28;;;;;;;0.88;0.70;;;28.90;71.20;;;;;;10480418;28;20044;-34
2023/09/13 01:19:45;;;;;;;4.90;1.17;;;28.80;71.20;;;;;;10483800;28;20071;-32
2023/09/13 01:25:10;;;;;;;1.92;0.90;;;28.80;71.30;;;;;;10490620;28;20049;-34
2023/09/13 01:30:14;;;;;;;1.13;0.80;;;28.80;72.00;;;;;;10481076;28;20124;-40
2023/09/13 01:35:16;;;;;;;2.40;0.90;;;28.80;71.40;;;;;;10489450;28;20094;-36
2023/09/13 01:40:18;;;;;;;2.00;1.10;;;28.70;71.50;;;;;;10481314;28;20049;-38
2023/09/13 01:45:22;;;;;;;1.90;1.00;;;28.80;71.70;;;;;;10487913;28;20457;-40
2023/09/13 01:50:24;;;;;;;1.35;0.88;;;28.70;71.70;;;;;;10491830;28;20040;-35
2023/09/13 01:55:26;;;;;;;4.00;1.20;;;28.70;72.00;;;;;;10492016;28;20087;-36
2023/09/13 02:00:29;;;;;;;4.10;2.25;;;28.70;72.10;;;;;;10492579;28;20100;-32
2023/09/13 02:05:31;;;;;;;3.30;1.73;;;28.50;71.90;;;;;;10487310;28;20040;-37
2023/09/13 02:10:33;;;;;;;2.55;1.52;;;28.40;72.60;;;;;;10468225;28;20091;-32
2023/09/13 02:15:40;;;;;;;2.10;1.27;;;28.30;73.70;;;;;;10478232;28;20067;-39
2023/09/13 02:20:43;;;;;;;2.08;1.20;;;28.60;72.50;;;;;;10486536;28;20059;-38
2023/09/13 02:25:45;;;;;;;2.00;1.40;;;28.40;72.10;;;;;;10480350;28;20109;-39
2023/09/13 02:30:48;;;;;;;2.60;1.35;;;28.10;74.60;;;;;;10488272;28;20405;-41
2023/09/13 02:35:50;;;;;;;3.30;1.95;;;28.30;73.80;;;;;;10480211;28;20493;-38
2023/09/13 02:40:52;;;;;;;1.50;1.35;;;28.00;74.70;;;;;;10476615;28;20053;-37
2023/09/13 02:45:55;;;;;;;2.35;1.70;;;28.00;75.20;;;;;;10475041;28;20187;-32
2023/09/13 02:50:57;;;;;;;9.93;4.15;;;27.40;78.70;;;;;;10481199;28;20136;-32
2023/09/13 02:56:04;;;;;;;2.85;1.50;;;28.00;74.40;;;;;;10499174;28;20135;-39
2023/09/13 03:15:34;;;;;;;4.15;1.90;;;27.30;77.50;;;;;;10499687;27;20204;-34
2023/09/13 03:20:39;;;;;;;2.67;1.85;;;27.70;78.00;;;;;;10491593;28;20140;-39
2023/09/13 03:25:41;;;;;;;2.08;1.63;;;27.50;78.00;;;;;;10505995;28;20140;-31
2023/09/13 03:30:45;;;;;;;2.95;1.55;;;27.60;78.00;;;;;;10488590;28;20080;-33
2023/09/13 03:35:47;;;;;;;4.10;2.22;;;28.00;75.20;;;;;;10488559;28;20076;-32
2023/09/13 03:40:48;;;;;;;5.32;3.00;;;27.70;76.70;;;;;;10506422;28;20465;-33
2023/09/13 03:45:52;;;;;;;6.20;3.22;;;27.30;74.70;;;;;;10496842;28;20461;-32
2023/09/13 03:50:53;;;;;;;2.40;1.88;;;27.10;78.30;;;;;;10493999;28;20076;-35
2023/09/13 03:55:56;;;;;;;2.75;2.38;;;27.20;77.60;;;;;;10512483;28;20069;-33
2023/09/13 04:01:00;;;;;;;5.35;1.80;;;26.50;81.40;;;;;;10516959;28;20051;-38
2023/09/13 04:06:02;;;;;;;5.75;3.08;;;27.50;77.80;;;;;;10504855;28;20080;-32
2023/09/13 04:11:04;;;;;;;3.45;1.80;;;26.10;83.50;;;;;;10483770;28;20542;-33
2023/09/13 04:16:08;;;;;;;2.28;1.52;;;26.80;82.80;;;;;;10490604;28;20660;-35
2023/09/13 04:21:10;;;;;;;2.63;1.80;;;26.50;84.10;;;;;;10490169;28;20091;-42
2023/09/13 04:26:13;;;;;;;5.93;2.13;;;26.90;81.00;;;;;;10481775;28;20481;-41
2023/09/13 04:31:16;;;;;;;3.10;1.50;;;26.00;88.40;;;;;;10461978;28;20478;-34
2023/09/13 04:36:18;;;;;;;8.00;2.45;;;26.70;81.00;;;;;;10458797;28;20076;-36
2023/09/13 04:41:20;;;;;;;14.20;1.90;;;26.50;82.80;;;;;;10473654;28;20510;-36
2023/09/13 04:46:23;;;;;;;3.63;1.98;;;25.60;86.70;;;;;;10464217;28;20195;-33
2023/09/13 04:51:25;;;;;;;2.85;1.25;;;27.10;80.20;;;;;;10480045;28;20072;-32
2023/09/13 04:56:27;;;;;;;3.30;1.20;;;27.50;75.40;;;;;;10470477;28;20075;-33
2023/09/13 05:01:30;;;;;;;7.38;1.42;;;27.40;76.90;;;;;;10469954;28;20405;-33
2023/09/13 05:06:32;;;;;;;9.00;1.42;;;27.40;76.30;;;;;;10466681;28;20041;-35
2023/09/13 05:11:34;;;;;;;6.82;1.23;;;27.50;75.50;;;;;;10463460;28;20057;-34
2023/09/13 05:16:37;;;;;;;8.25;1.50;;;27.60;72.20;;;;;;10462355;28;20044;-32
2023/09/13 05:21:39;;;;;;;4.25;1.23;;;27.20;76.00;;;;;;10477459;28;20109;-39
2023/09/13 05:26:41;;;;;;;5.70;1.52;;;27.50;75.20;;;;;;10458926;28;20681;-41
2023/09/13 05:31:45;;;;;;;6.05;1.67;;;27.40;73.50;;;;;;10454157;28;20119;-38
2023/09/13 05:36:47;;;;;;;3.10;0.82;;;27.80;73.90;;;;;;10461639;28;20122;-34
2023/09/13 05:41:49;;;;;;;6.07;1.73;;;27.80;73.50;;;;;;10474722;28;20129;-35
2023/09/13 05:46:53;;;;;;;3.17;1.00;;;27.50;74.30;;;;;;10458476;28;20076;-32
2023/09/13 05:51:55;;;;;;;7.97;1.20;;;27.60;73.10;;;;;;10459013;28;20737;-34
2023/09/13 05:56:57;;;;;;;6.95;1.50;;;27.30;70.90;;;;;;10457584;28;20140;-37
2023/09/13 06:02:00;;;;;;;5.93;1.23;;;27.80;72.00;;;;;;10470933;28;20473;-33
2023/09/13 06:07:02;;;;;;;3.42;0.90;;;27.60;71.70;;;;;;10463737;28;20125;-32
2023/09/13 06:12:04;;;;;;;6.07;1.00;;;27.80;70.50;;;;;;10482409;28;20053;-36
2023/09/13 06:17:07;;;;;;;3.10;1.10;;;27.70;70.20;;;;;;10465408;28;20077;-33
2023/09/13 06:22:09;;;;;;;5.13;1.02;;;27.70;70.30;;;;;;10465865;28;20106;-36
2023/09/13 06:27:11;;;;;;;2.28;0.68;;;27.80;69.20;;;;;;10461714;28;20044;-34
2023/09/13 06:32:15;;;;;;;3.28;0.98;;;27.50;68.20;;;;;;10469391;28;20072;-36
2023/09/13 06:37:16;;;;;;;3.25;0.82;;;27.80;68.40;;;;;;10452542;28;20523;-37
2023/09/13 06:42:18;;;;;;;2.47;0.95;;;27.70;68.10;;;;;;10466470;28;20049;-35
2023/09/13 06:47:39;;;;;;;0.88;0.43;;;27.80;67.10;;;;;;10480792;28;20135;-35
2023/09/13 06:52:45;;;;;;;6.15;1.00;;;27.70;66.70;;;;;;10482488;28;20079;-32
2023/09/13 06:58:18;;;;;;;4.03;0.60;;;27.90;66.10;;;;;;10478010;28;20056;-36
2023/09/13 07:03:26;;;;;;;1.23;0.50;;;27.90;65.40;;;;;;10481647;28;20102;-41
2023/09/13 07:08:44;;;;;;;2.00;0.73;;;27.90;64.70;;;;;;10486657;28;20053;-34
2023/09/13 07:13:49;;;;;;;2.20;0.50;;;27.90;64.40;;;;;;10486712;28;20155;-35
2023/09/13 07:18:56;;;;;;;0.95;0.40;;;27.80;64.40;;;;;;10488613;28;20083;-38
2023/09/13 07:24:04;;;;;;;1.90;0.40;;;27.80;64.20;;;;;;10515872;28;20056;-34
2023/09/13 07:29:08;;;;;;;1.52;0.43;;;27.90;63.90;;;;;;10474022;28;20169;-36
2023/09/13 07:34:22;;;;;;;1.35;0.50;;;27.90;63.80;;;;;;10489898;28;20497;-36
2023/09/13 07:39:28;;;;;;;0.50;0.40;;;27.70;64.10;;;;;;10497212;28;20055;-39
2023/09/13 07:44:30;;;;;;;1.63;0.50;;;27.90;63.50;;;;;;10477554;28;20062;-39
2023/09/13 07:49:50;;;;;;;1.17;0.40;;;27.90;63.40;;;;;;10470877;28;20409;-34
2023/09/13 07:55:26;;;;;;;1.27;0.40;;;27.60;63.30;;;;;;10486703;28;20048;-35
2023/09/13 08:00:31;;;;;;;0.55;0.35;;;27.80;63.30;;;;;;10471293;28;20049;-34
2023/09/13 08:05:45;;;;;;;0.85;0.40;;;28.00;62.60;;;;;;10475514;28;20569;-35
2023/09/13 08:10:48;;;;;;;2.58;0.40;;;28.00;63.00;;;;;;10476514;28;20522;-41
2023/09/13 08:15:57;;;;;;;0.47;0.30;;;28.00;62.30;;;;;;10480643;28;20052;-31
2023/09/13 08:21:02;;;;;;;1.55;0.55;;;27.80;62.60;;;;;;10488366;28;20044;-37
2023/09/13 08:26:13;;;;;;;1.08;0.45;;;27.50;63.00;;;;;;10470857;28;20087;-36
2023/09/13 08:31:29;;;;;;;1.25;0.63;;;27.70;62.90;;;;;;10466240;28;20102;-44
2023/09/13 08:36:33;;;;;;;1.95;0.63;;;27.80;62.40;;;;;;10467199;28;20458;-32
2023/09/13 08:41:36;;;;;;;1.60;0.52;;;28.00;62.00;;;;;;10456964;28;20052;-33
2023/09/13 08:46:39;;;;;;;3.40;0.68;;;28.00;61.50;;;;;;10454336;28;20132;-38
2023/09/13 08:51:43;;;;;;;1.92;0.65;;;27.60;62.30;;;;;;10465624;28;20116;-32
2023/09/13 08:56:45;;;;;;;1.88;0.70;;;27.80;62.00;;;;;;10470336;28;20045;-39
2023/09/13 09:01:49;;;;;;;1.98;0.70;;;27.80;61.90;;;;;;10471101;28;20076;-36
2023/09/13 09:06:53;;;;;;;1.25;0.68;;;28.00;61.50;;;;;;10469308;28;20079;-33
2023/09/13 09:12:00;;;;;;;2.15;0.60;;;28.00;61.50;;;;;;10472600;28;20064;-32
2023/09/13 09:17:03;;;;;;;2.25;0.63;;;28.10;61.30;;;;;;10468233;28;20102;-31
2023/09/13 09:22:09;;;;;;;3.10;0.82;;;28.00;61.10;;;;;;10479319;28;20076;-32
2023/09/13 09:27:13;;;;;;;6.28;0.70;;;28.10;61.00;;;;;;10451616;28;20048;-39
2023/09/13 09:32:15;;;;;;;2.35;0.98;;;28.10;60.90;;;;;;10457045;28;20055;-32
2023/09/13 09:37:18;;;;;;;2.30;0.80;;;27.90;61.30;;;;;;10458272;28;20072;-35
2023/09/13 09:42:20;;;;;;;2.63;0.73;;;28.20;60.80;;;;;;10469559;28;20136;-33
2023/09/13 09:47:22;;;;;;;0.82;0.40;;;27.70;61.90;;;;;;10469564;28;20045;-33
2023/09/13 09:52:26;;;;;;;4.65;0.82;;;27.90;61.10;;;;;;10468469;28;20143;-35
2023/09/13 09:57:27;;;;;;;0.82;0.57;;;28.10;60.60;;;;;;10455168;28;20045;-40
2023/09/13 10:02:29;;;;;;;5.38;0.55;;;27.90;60.90;;;;;;10473613;28;20037;-36
2023/09/13 10:07:40;;;;;;;2.53;0.70;;;28.00;61.10;;;;;;10455136;28;20080;-32
2023/09/13 10:12:45;;;;;;;0.93;0.60;;;28.00;60.70;;;;;;10464287;28;20061;-37
2023/09/13 10:17:49;;;;;;;2.47;0.73;;;28.00;60.50;;;;;;10471603;28;20076;-33
2023/09/13 10:22:55;;;;;;;0.88;0.70;;;28.20;60.20;;;;;;10478487;28;20068;-34
2023/09/13 10:28:01;;;;;;;1.25;0.40;;;28.30;60.00;;;;;;10472876;28;20073;-35
2023/09/13 10:33:04;;;;;;;3.13;0.60;;;28.40;59.90;;;;;;10460572;28;20047;-38
2023/09/13 10:38:13;;;;;;;1.77;0.75;;;27.60;59.50;;;;;;10466573;28;20455;-35
2023/09/13 10:43:15;;;;;;;2.97;0.88;;;27.70;61.30;;;;;;10479196;28;20189;-36
2023/09/13 10:48:18;;;;;;;3.15;0.63;;;28.10;60.00;;;;;;10469428;28;20069;-35
2023/09/13 10:53:22;;;;;;;3.72;1.05;;;27.60;61.10;;;;;;10464993;28;20511;-34
2023/09/13 10:58:26;;;;;;;1.52;0.52;;;27.80;60.70;;;;;;10478345;28;20135;-33
2023/09/13 11:03:28;;;;;;;3.08;0.65;;;28.10;60.00;;;;;;10467957;28;20405;-41
2023/09/13 11:08:33;;;;;;;1.67;0.60;;;28.20;60.00;;;;;;10468981;28;20064;-36
2023/09/13 11:13:35;;;;;;;2.22;0.60;;;28.20;59.80;;;;;;10465497;28;20052;-41
2023/09/13 11:18:46;;;;;;;1.98;0.80;;;28.20;59.80;;;;;;10480167;28;20076;-33
2023/09/13 11:23:54;;;;;;;1.38;0.70;;;28.20;59.80;;;;;;10481515;28;20052;-32
2023/09/13 11:28:56;;;;;;;3.42;0.80;;;28.40;59.70;;;;;;10457760;28;20081;-33
2023/09/13 11:33:58;;;;;;;3.08;0.50;;;28.40;59.60;;;;;;10462564;28;20098;-34
2023/09/13 11:39:02;;;;;;;2.50;0.60;;;28.40;59.50;;;;;;10477738;28;20059;-39
2023/09/13 11:44:05;;;;;;;2.67;0.50;;;28.30;59.60;;;;;;10480274;28;20405;-34
2023/09/13 11:49:07;;;;;;;1.90;0.45;;;28.30;59.60;;;;;;10470052;28;20064;-37
2023/09/13 11:54:18;;;;;;;3.30;0.60;;;28.50;59.50;;;;;;10487877;28;20083;-35
2023/09/13 11:59:24;;;;;;;5.93;0.85;;;28.50;59.20;;;;;;10471485;28;20045;-34
2023/09/13 12:04:27;;;;;;;2.40;0.50;;;28.60;59.20;;;;;;10490860;28;20052;-33
2023/09/13 12:09:30;;;;;;;0.85;0.50;;;28.30;57.10;;;;;;10464894;28;20893;-33
2023/09/13 12:14:32;;;;;;;1.60;0.80;;;28.60;58.80;;;;;;10468753;28;20136;-36
2023/09/13 12:19:36;;;;;;;2.63;0.63;;;28.60;58.70;;;;;;10482977;28;20094;-34
2023/09/13 12:24:49;;;;;;;1.90;0.90;;;28.70;58.60;;;;;;10495462;28;20050;-37
2023/09/13 12:29:52;;;;;;;1.90;1.02;;;28.70;58.40;;;;;;10476022;28;20059;-37
2023/09/13 12:34:54;;;;;;;1.80;0.80;;;28.70;58.40;;;;;;10471089;28;20045;-34
2023/09/13 12:39:57;;;;;;;2.88;1.27;;;28.70;58.40;;;;;;10476570;28;20040;-32
2023/09/13 12:44:59;;;;;;;2.35;1.08;;;28.70;58.20;;;;;;10465519;28;20076;-35
2023/09/13 12:50:02;;;;;;;1.77;0.95;;;28.80;56.90;;;;;;10475699;28;20080;-37
2023/09/13 12:55:06;;;;;;;3.38;0.95;;;28.00;59.30;;;;;;10478360;28;20478;-34
2023/09/13 13:00:12;;;;;;;4.55;1.00;;;28.20;59.30;;;;;;10462387;28;20139;-35
2023/09/13 13:05:14;;;;;;;4.88;1.20;;;28.80;58.20;;;;;;10483663;28;20064;-40
2023/09/13 13:10:17;;;;;;;2.78;1.00;;;28.80;58.50;;;;;;10465299;28;20090;-38
2023/09/13 13:15:19;;;;;;;4.03;1.15;;;28.70;58.40;;;;;;10484071;28;20426;-34
2023/09/13 13:20:21;;;;;;;5.47;1.60;;;28.80;58.10;;;;;;10481935;28;20048;-32
2023/09/13 13:25:24;;;;;;;3.30;1.05;;;28.90;57.80;;;;;;10472616;28;20045;-37
2023/09/13 13:30:26;;;;;;;4.68;1.45;;;29.00;57.50;;;;;;10457884;28;20041;-34
2023/09/13 13:35:28;;;;;;;6.75;1.80;;;29.00;57.10;;;;;;10460501;28;20136;-37
2023/09/13 13:40:32;;;;;;;10.75;1.85;;;28.20;54.90;;;;;;10475446;28;20052;-36
2023/09/13 13:45:34;;;;;;;4.75;1.30;;;28.50;58.20;;;;;;10471005;28;20053;-34
2023/09/13 13:50:36;;;;;;;2.83;1.30;;;28.60;58.20;;;;;;10472314;28;20076;-35
2023/09/13 13:55:41;;;;;;;3.17;1.13;;;28.90;57.60;;;;;;10477434;28;20533;-39
2023/09/13 14:00:43;;;;;;;2.72;1.13;;;28.90;57.40;;;;;;10466305;28;20203;-34
2023/09/13 14:05:45;;;;;;;4.80;1.10;;;28.90;57.40;;;;;;10470975;28;20076;-36
2023/09/13 14:10:49;;;;;;;4.30;1.77;;;29.10;57.10;;;;;;10472747;28;20481;-35
2023/09/13 14:15:51;;;;;;;3.13;0.90;;;29.00;57.30;;;;;;10468055;28;20052;-38
2023/09/13 14:20:53;;;;;;;4.05;1.13;;;28.70;57.40;;;;;;10475117;28;20139;-40
2023/09/13 14:25:56;;;;;;;4.28;0.90;;;28.90;57.40;;;;;;10475679;28;20140;-40
2023/09/13 14:30:58;;;;;;;2.63;1.10;;;29.10;57.30;;;;;;10467174;28;20639;-35
2023/09/13 14:36:00;;;;;;;6.25;1.17;;;29.20;57.50;;;;;;10473079;28;20135;-35
2023/09/13 14:41:03;;;;;;;5.63;1.00;;;29.20;55.30;;;;;;10488714;28;20043;-32
2023/09/13 14:46:05;;;;;;;1.35;0.82;;;28.80;56.30;;;;;;10466330;28;20481;-30
2023/09/13 14:51:07;;;;;;;3.28;1.30;;;29.40;56.30;;;;;;10472963;28;20709;-36
2023/09/13 14:56:10;;;;;;;1.95;0.98;;;29.30;56.40;;;;;;10461026;28;20056;-33
2023/09/13 15:01:12;;;;;;;4.30;1.30;;;29.30;56.10;;;;;;10467725;28;20049;-32
2023/09/13 15:06:16;;;;;;;1.65;0.95;;;29.50;55.90;;;;;;10457488;28;20477;-35
2023/09/13 15:11:19;;;;;;;1.60;0.95;;;29.70;55.50;;;;;;10453529;28;20547;-29
2023/09/13 15:16:21;;;;;;;2.25;1.13;;;29.80;55.70;;;;;;10475514;28;20076;-35
2023/09/13 15:21:23;;;;;;;2.33;1.00;;;29.80;55.20;;;;;;10479732;28;20164;-37
2023/09/13 15:26:27;;;;;;;3.65;0.98;;;29.70;53.50;;;;;;10468864;28;20069;-32
2023/09/13 15:31:29;;;;;;;3.45;1.20;;;29.90;54.80;;;;;;10458768;28;20135;-36
2023/09/13 15:36:31;;;;;;;3.00;1.23;;;30.00;54.30;;;;;;10459866;28;20439;-33
2023/09/13 15:41:34;;;;;;;3.65;1.25;;;30.10;54.60;;;;;;10457830;28;20098;-33
2023/09/13 15:46:36;;;;;;;5.65;1.20;;;30.00;55.10;;;;;;10461648;28;20060;-32
2023/09/13 15:51:38;;;;;;;4.10;1.15;;;30.20;54.00;;;;;;10474230;28;20045;-35
2023/09/13 15:56:41;;;;;;;1.30;0.60;;;30.30;54.50;;;;;;10465143;28;20131;-36
2023/09/13 16:01:43;;;;;;;1.75;0.95;;;30.30;55.20;;;;;;10465956;28;20139;-35
2023/09/13 16:06:45;;;;;;;1.10;0.80;;;30.40;54.00;;;;;;10476482;28;20076;-33
2023/09/13 16:11:48;;;;;;;2.20;0.90;;;30.40;54.10;;;;;;10466429;28;20059;-33
2023/09/13 16:16:49;;;;;;;1.95;1.00;;;30.50;54.50;;;;;;10478314;28;20159;-35
2023/09/13 16:21:51;;;;;;;1.90;0.82;;;30.50;54.20;;;;;;10494471;28;20048;-36
2023/09/13 16:26:56;;;;;;;2.53;1.00;;;30.50;54.20;;;;;;10477614;28;20048;-36
2023/09/13 16:31:58;;;;;;;6.20;1.20;;;30.60;53.70;;;;;;10479251;28;20406;-36
2023/09/13 16:37:01;;;;;;;2.75;1.08;;;30.70;54.40;;;;;;10467930;28;20147;-37
2023/09/13 16:42:05;;;;;;;2.28;1.35;;;30.60;53.90;;;;;;10479721;28;20052;-32
2023/09/13 16:47:10;;;;;;;3.22;0.98;;;30.60;53.90;;;;;;10476137;28;20485;-37
2023/09/13 16:52:14;;;;;;;1.80;1.00;;;30.70;53.90;;;;;;10465953;28;20462;-34
2023/09/13 16:57:20;;;;;;;4.57;1.10;;;30.70;53.60;;;;;;10474895;28;20073;-35
2023/09/13 17:02:25;;;;;;;1.08;0.80;;;30.60;53.80;;;;;;10474696;28;20041;-32
2023/09/13 17:07:30;;;;;;;3.58;1.05;;;30.60;53.40;;;;;;10461228;28;20053;-33
2023/09/13 17:12:36;;;;;;;3.42;1.30;;;30.60;53.20;;;;;;10471621;28;20057;-36
2023/09/13 17:17:38;;;;;;;1.83;1.05;;;30.60;53.00;;;;;;10481037;28;20147;-34
2023/09/13 17:22:39;;;;;;;3.22;1.10;;;30.60;53.00;;;;;;10476672;28;20076;-35
2023/09/13 17:27:43;;;;;;;2.03;0.95;;;30.60;53.00;;;;;;10469723;28;20071;-38
2023/09/13 17:32:44;;;;;;;3.88;1.63;;;30.60;52.90;;;;;;10475262;28;20064;-33
2023/09/13 17:37:46;;;;;;;3.75;1.33;;;30.70;53.90;;;;;;10477053;28;20135;-33
2023/09/13 17:42:51;;;;;;;3.53;1.38;;;30.70;54.30;;;;;;10483549;28;20409;-35
2023/09/13 17:47:53;;;;;;;2.60;1.10;;;30.70;54.00;;;;;;10478723;28;20048;-35
2023/09/13 17:52:55;;;;;;;2.75;1.00;;;30.70;54.00;;;;;;10476202;28;20445;-36
2023/09/13 17:58:00;;;;;;;3.65;1.08;;;30.60;54.00;;;;;;10478551;28;20053;-31
2023/09/13 18:03:02;;;;;;;2.63;1.25;;;30.50;54.10;;;;;;10461640;28;20485;-34
2023/09/13 18:08:06;;;;;;;1.77;0.90;;;30.50;54.20;;;;;;10478757;28;20053;-33
2023/09/13 18:13:09;;;;;;;3.80;1.27;;;30.40;54.20;;;;;;10476518;28;20052;-37
2023/09/13 18:18:11;;;;;;;2.70;0.98;;;30.40;54.20;;;;;;10483320;28;20048;-38
2023/09/13 18:23:14;;;;;;;2.85;0.98;;;30.30;54.20;;;;;;10474719;28;20056;-35
2023/09/13 18:28:18;;;;;;;3.83;1.40;;;30.30;54.70;;;;;;10465294;28;20540;-30
2023/09/13 18:33:20;;;;;;;2.15;0.95;;;30.20;54.40;;;;;;10466205;28;20128;-38
2023/09/13 18:38:22;;;;;;;3.10;1.00;;;30.20;54.70;;;;;;10473570;28;20059;-36
2023/09/13 18:43:25;;;;;;;1.88;0.80;;;30.10;54.90;;;;;;10465128;28;20048;-38
2023/09/13 18:48:28;;;;;;;6.05;1.02;;;30.00;54.60;;;;;;10471228;28;20126;-34
2023/09/13 18:53:30;;;;;;;10.00;1.63;;;29.90;54.60;;;;;;10460978;28;20132;-32
2023/09/13 18:58:33;;;;;;;2.33;1.48;;;29.90;54.60;;;;;;10471228;28;20508;-37
2023/09/13 19:03:36;;;;;;;9.13;1.55;;;29.80;54.50;;;;;;10470935;28;20178;-34
2023/09/13 19:08:38;;;;;;;5.97;1.65;;;29.70;54.40;;;;;;10458390;28;20540;-35
2023/09/13 19:13:42;;;;;;;14.38;1.90;;;29.70;54.60;;;;;;10457658;28;20145;-30
2023/09/13 19:18:46;;;;;;;7.35;1.52;;;29.60;54.60;;;;;;10466173;28;20056;-35
2023/09/13 19:23:48;;;;;;;4.63;1.40;;;29.50;54.60;;;;;;10477443;28;20094;-35
2023/09/13 19:28:52;;;;;;;5.90;1.27;;;29.50;54.60;;;;;;10471783;28;20045;-37
2023/09/13 19:33:55;;;;;;;6.82;1.17;;;29.50;54.60;;;;;;10455844;28;20127;-41
2023/09/13 19:38:57;;;;;;;4.18;1.45;;;29.40;54.50;;;;;;10465037;28;20547;-38
2023/09/13 19:44:00;;;;;;;4.05;1.40;;;29.40;54.60;;;;;;10465593;28;20080;-35
2023/09/13 19:49:02;;;;;;;2.38;1.08;;;29.30;54.50;;;;;;10466408;28;20503;-32
2023/09/13 19:54:04;;;;;;;3.33;1.30;;;29.20;54.60;;;;;;10468050;28;20053;-34
2023/09/13 19:59:07;;;;;;;2.70;0.90;;;29.20;54.60;;;;;;10467852;28;20053;-33
2023/09/13 20:04:09;;;;;;;3.95;1.67;;;29.20;54.80;;;;;;10467142;28;20090;-35
2023/09/13 20:09:11;;;;;;;2.55;1.17;;;29.10;54.70;;;;;;10481578;28;20071;-35
2023/09/13 20:14:14;;;;;;;5.03;1.70;;;29.10;54.80;;;;;;10468179;28;20052;-33
2023/09/13 20:19:16;;;;;;;3.08;1.25;;;29.00;54.70;;;;;;10471889;28;20128;-33
2023/09/13 20:24:18;;;;;;;6.07;1.58;;;29.00;54.80;;;;;;10482285;28;20051;-32
2023/09/13 20:29:25;;;;;;;5.00;1.92;;;28.90;54.90;;;;;;10479436;28;20068;-32
2023/09/13 20:34:30;;;;;;;3.72;1.58;;;28.90;54.90;;;;;;10466238;28;20087;-36
2023/09/13 20:39:32;;;;;;;4.50;1.40;;;28.90;54.90;;;;;;10477129;28;20076;-30
2023/09/13 20:44:36;;;;;;;6.45;1.77;;;28.80;55.00;;;;;;10475015;28;20075;-37
2023/09/13 20:49:38;;;;;;;4.57;1.35;;;28.80;54.90;;;;;;10472642;28;20040;-37
2023/09/13 20:54:39;;;;;;;4.22;1.48;;;28.70;55.00;;;;;;10475899;28;20139;-35
2023/09/13 20:59:43;;;;;;;4.72;1.65;;;28.70;55.10;;;;;;10468125;28;20083;-34
2023/09/13 21:04:44;;;;;;;5.88;1.70;;;28.70;55.10;;;;;;10469823;28;20098;-38
2023/09/13 21:09:46;;;;;;;6.43;1.63;;;28.60;55.10;;;;;;10474381;28;20049;-34
2023/09/13 21:14:51;;;;;;;3.33;1.60;;;28.50;55.10;;;;;;10482134;28;20129;-33
2023/09/13 21:19:53;;;;;;;6.70;1.42;;;28.50;55.10;;;;;;10480823;28;20044;-37
2023/09/13 21:24:55;;;;;;;3.47;1.30;;;28.50;55.20;;;;;;10481519;28;20056;-34
2023/09/13 21:29:59;;;;;;;5.07;1.75;;;28.40;55.00;;;;;;10483469;28;20045;-33
2023/09/13 21:35:01;;;;;;;3.67;1.77;;;28.40;55.10;;;;;;10463275;28;20114;-36
2023/09/13 21:40:03;;;;;;;5.53;1.58;;;28.40;55.10;;;;;;10474069;28;20190;-35
2023/09/13 21:45:08;;;;;;;3.42;1.58;;;28.30;55.10;;;;;;10447026;28;20135;-34
2023/09/13 21:50:12;;;;;;;2.38;1.30;;;28.30;55.20;;;;;;10464571;28;20140;-37
2023/09/13 21:55:14;;;;;;;4.05;1.15;;;28.20;55.20;;;;;;10471900;28;20603;-34
2023/09/13 22:00:17;;;;;;;4.13;1.88;;;28.20;55.80;;;;;;10466958;28;20097;-35
2023/09/13 22:05:22;;;;;;;5.55;2.25;;;28.10;55.20;;;;;;10467852;28;20534;-36
2023/09/13 22:10:24;;;;;;;3.63;1.45;;;28.10;55.30;;;;;;10466594;28;20045;-39
2023/09/13 22:15:27;;;;;;;3.95;1.38;;;28.10;55.20;;;;;;10466734;28;20171;-36
2023/09/13 22:20:29;;;;;;;3.17;1.60;;;28.00;55.20;;;;;;10463814;28;20048;-36
2023/09/13 22:25:31;;;;;;;1.67;1.08;;;28.00;55.10;;;;;;10466380;28;20045;-35
2023/09/13 22:30:34;;;;;;;10.10;1.70;;;28.00;55.20;;;;;;10481954;28;20098;-32
2023/09/13 22:35:36;;;;;;;3.13;1.30;;;27.90;55.20;;;;;;10483749;28;20493;-31
2023/09/13 22:40:38;;;;;;;3.45;1.52;;;27.90;55.20;;;;;;10472368;28;20123;-36
2023/09/13 22:45:41;;;;;;;2.47;1.35;;;27.90;55.70;;;;;;10481414;28;20143;-35
2023/09/13 22:50:43;;;;;;;3.92;1.25;;;27.80;55.30;;;;;;10485488;28;20071;-32
2023/09/13 22:55:52;;;;;;;6.15;1.83;;;27.80;55.20;;;;;;10474736;28;20080;-38
2023/09/13 23:00:55;;;;;;;3.50;1.80;;;27.80;55.20;;;;;;10471282;28;20144;-36
2023/09/13 23:05:58;;;;;;;4.10;1.23;;;27.70;55.20;;;;;;10473838;28;20139;-30
2023/09/13 23:11:00;;;;;;;3.03;1.33;;;27.70;55.20;;;;;;10480079;28;20036;-35
2023/09/13 23:16:05;;;;;;;2.35;1.00;;;27.70;55.20;;;;;;10485223;28;20144;-33
2023/09/13 23:21:07;;;;;;;4.57;1.48;;;27.60;55.10;;;;;;10486484;28;20131;-34
2023/09/13 23:26:08;;;;;;;2.35;1.00;;;27.60;55.20;;;;;;10466289;28;20135;-42
2023/09/13 23:31:14;;;;;;;2.38;1.00;;;27.60;55.20;;;;;;10479876;28;20068;-35
2023/09/13 23:36:15;;;;;;;3.83;1.25;;;27.60;55.20;;;;;;10481201;28;20080;-37
2023/09/13 23:41:17;;;;;;;5.53;1.30;;;27.50;55.20;;;;;;10485127;28;20131;-35
2023/09/13 23:46:21;;;;;;;2.20;1.20;;;27.40;55.20;;;;;;10483462;28;20516;-33
2023/09/13 23:51:23;;;;;;;4.00;1.55;;;27.40;55.20;;;;;;10489048;28;20072;-36
2023/09/13 23:56:25;;;;;;;2.45;1.20;;;27.40;55.20;;;;;;10483682;28;20102;-39
